createdAt,value
2018-05-14T00:01:20.235Z,91.90
2018-05-14T00:03:47.779Z,91.70
2018-05-14T00:06:15.897Z,91.10
2018-05-14T00:08:43.349Z,91.10
2018-05-14T00:11:10.804Z,91.30
2018-05-14T00:13:38.245Z,91.30
2018-05-14T00:16:05.703Z,91.60
2018-05-14T00:18:33.150Z,91.90
2018-05-14T00:21:00.607Z,91.80
2018-05-14T00:23:28.061Z,91.60
2018-05-14T00:25:55.516Z,91.30
2018-05-14T00:28:22.972Z,90.90
2018-05-14T00:30:50.430Z,91.00
2018-05-14T00:33:17.902Z,90.20
2018-05-14T00:35:45.347Z,90.40
2018-05-14T00:38:12.802Z,90.70
2018-05-14T00:40:41.009Z,90.50
2018-05-14T00:43:08.455Z,90.40
2018-05-14T00:45:35.902Z,90.20
2018-05-14T00:48:03.345Z,90.10
2018-05-14T00:50:30.803Z,90.10
2018-05-14T00:52:58.261Z,90.20
2018-05-14T00:55:25.698Z,89.90
2018-05-14T00:57:53.174Z,90.10
2018-05-14T01:00:21.373Z,90.60
2018-05-14T01:02:48.830Z,90.60
2018-05-14T01:05:16.278Z,90.60
2018-05-14T01:07:43.734Z,90.30
2018-05-14T01:10:11.172Z,90.60
2018-05-14T01:12:38.628Z,90.80
2018-05-14T01:15:06.085Z,90.90
2018-05-14T01:17:34.301Z,91.20
2018-05-14T01:20:01.759Z,91.20
2018-05-14T01:22:29.219Z,91.10
2018-05-14T01:25:02.304Z,91.70
2018-05-14T01:27:29.774Z,91.10
2018-05-14T01:29:57.219Z,91.20
2018-05-14T01:32:24.669Z,90.90
2018-05-14T01:34:52.115Z,90.60
2018-05-14T01:37:19.567Z,90.40
2018-05-14T01:39:47.027Z,90.30
2018-05-14T01:42:14.482Z,89.90
2018-05-14T01:44:41.938Z,90.00
2018-05-14T01:47:10.160Z,90.10
2018-05-14T01:49:37.610Z,90.10
2018-05-14T01:52:05.059Z,90.30
2018-05-14T01:54:32.502Z,90.50
2018-05-14T01:56:59.959Z,90.80
2018-05-14T01:59:27.394Z,90.70
2018-05-14T02:01:54.851Z,90.70
2018-05-14T02:04:22.308Z,90.70
2018-05-14T02:06:50.592Z,90.00
2018-05-14T02:09:18.727Z,90.60
2018-05-14T02:11:46.940Z,90.40
2018-05-14T02:14:14.380Z,90.40
2018-05-14T02:16:41.855Z,90.30
2018-05-14T02:19:09.302Z,90.20
2018-05-14T02:21:36.737Z,90.10
2018-05-14T02:24:04.189Z,90.60
2018-05-14T02:26:31.662Z,90.40
2018-05-14T02:28:59.103Z,90.20
2018-05-14T02:31:26.569Z,90.30
2018-05-14T02:33:53.995Z,89.30
2018-05-14T02:36:21.449Z,88.10
2018-05-14T02:38:48.897Z,88.90
2018-05-14T02:41:16.338Z,89.70
2018-05-14T02:43:43.810Z,88.40
2018-05-14T02:46:11.249Z,89.70
2018-05-14T02:48:38.710Z,89.30
2018-05-14T02:51:06.158Z,89.30
2018-05-14T02:53:33.622Z,88.80
2018-05-14T02:56:01.838Z,88.40
2018-05-14T02:58:29.283Z,87.70
2018-05-14T03:00:56.727Z,87.70
2018-05-14T03:03:24.174Z,89.10
2018-05-14T03:05:51.615Z,87.70
2018-05-14T03:08:19.058Z,87.00
2018-05-14T03:10:46.504Z,86.70
2018-05-14T03:13:13.960Z,87.00
2018-05-14T03:15:41.413Z,86.90
2018-05-14T03:18:09.626Z,86.80
2018-05-14T03:20:37.083Z,86.80
2018-05-14T03:23:04.521Z,88.00
2018-05-14T03:25:31.968Z,87.70
2018-05-14T03:27:59.433Z,87.50
2018-05-14T03:30:26.876Z,88.00
2018-05-14T03:32:54.333Z,87.70
2018-05-14T03:35:21.762Z,87.00
2018-05-14T03:37:49.276Z,86.80
2018-05-14T03:40:16.715Z,86.80
2018-05-14T03:42:44.180Z,87.20
2018-05-14T03:45:11.611Z,86.90
2018-05-14T03:47:39.068Z,87.30
2018-05-14T03:50:06.497Z,86.60
2018-05-14T03:52:33.950Z,85.90
2018-05-14T03:55:01.395Z,86.90
2018-05-14T03:57:28.851Z,87.10
2018-05-14T04:00:08.169Z,87.50
2018-05-14T04:02:47.464Z,86.70
2018-05-14T04:05:19.858Z,87.20
2018-05-14T04:07:48.076Z,87.70
2018-05-14T04:10:15.527Z,87.50
2018-05-14T04:12:42.969Z,86.60
2018-05-14T04:15:10.425Z,87.40
2018-05-14T04:17:37.885Z,87.20
2018-05-14T04:20:06.181Z,86.50
2018-05-14T04:22:33.634Z,86.50
2018-05-14T04:25:01.095Z,85.70
2018-05-14T04:27:28.569Z,87.00
2018-05-14T04:29:56.009Z,87.10
2018-05-14T04:32:23.465Z,86.00
2018-05-14T04:34:50.926Z,85.40
2018-05-14T04:37:18.353Z,85.70
2018-05-14T04:39:46.564Z,86.60
2018-05-14T04:42:14.011Z,86.50
2018-05-14T04:44:41.472Z,86.40
2018-05-14T04:47:08.914Z,85.70
2018-05-14T04:49:36.366Z,87.20
2018-05-14T04:52:03.814Z,86.10
2018-05-14T04:54:31.290Z,86.20
2018-05-14T04:56:59.495Z,84.70
2018-05-14T04:59:26.947Z,84.70
2018-05-14T05:01:54.374Z,84.70
2018-05-14T05:04:21.817Z,84.50
2018-05-14T05:06:49.270Z,83.10
2018-05-14T05:09:16.735Z,83.70
2018-05-14T05:11:44.185Z,83.80
2018-05-14T05:14:11.646Z,82.40
2018-05-14T05:16:39.099Z,82.90
2018-05-14T05:19:06.559Z,81.80
2018-05-14T05:21:34.016Z,81.50
2018-05-14T05:24:01.491Z,82.60
2018-05-14T05:26:28.944Z,82.50
2018-05-14T05:28:57.166Z,81.10
2018-05-14T05:31:24.667Z,80.90
2018-05-14T05:33:52.123Z,80.90
2018-05-14T05:36:19.581Z,81.30
2018-05-14T05:38:47.039Z,80.50
2018-05-14T05:41:14.494Z,80.80
2018-05-14T05:43:41.953Z,80.50
2018-05-14T05:46:09.426Z,80.90
2018-05-14T05:48:37.639Z,81.10
2018-05-14T05:51:05.102Z,81.00
2018-05-14T05:53:32.552Z,80.50
2018-05-14T05:56:00.007Z,79.50
2018-05-14T05:58:28.238Z,78.40
2018-05-14T06:00:55.690Z,78.40
2018-05-14T06:03:23.144Z,78.80
2018-05-14T06:05:50.593Z,79.70
2018-05-14T06:08:18.805Z,79.40
2018-05-14T06:10:46.249Z,79.30
2018-05-14T06:13:13.706Z,79.10
2018-05-14T06:15:41.153Z,79.70
2018-05-14T06:18:08.622Z,78.40
2018-05-14T06:20:36.847Z,79.00
2018-05-14T06:23:04.307Z,79.00
2018-05-14T06:25:31.819Z,79.50
2018-05-14T06:27:59.295Z,80.30
2018-05-14T06:30:26.774Z,79.70
2018-05-14T06:32:54.226Z,79.90
2018-05-14T06:35:21.695Z,79.30
2018-05-14T06:37:49.142Z,78.40
2018-05-14T06:40:16.682Z,80.60
2018-05-14T06:42:44.053Z,79.10
2018-05-14T06:45:11.505Z,79.30
2018-05-14T06:47:38.962Z,79.90
2018-05-14T06:50:07.174Z,79.00
2018-05-14T06:52:34.613Z,79.00
2018-05-14T06:55:02.083Z,78.60
2018-05-14T06:57:29.531Z,78.40
2018-05-14T06:59:56.980Z,77.20
2018-05-14T07:02:24.419Z,78.10
2018-05-14T07:04:51.878Z,78.30
2018-05-14T07:07:20.091Z,77.70
2018-05-14T07:09:47.546Z,77.70
2018-05-14T07:12:15.007Z,77.20
2018-05-14T07:14:42.460Z,75.60
2018-05-14T07:17:10.666Z,76.00
2018-05-14T07:19:38.122Z,75.20
2018-05-14T07:22:05.575Z,75.60
2018-05-14T07:24:33.014Z,75.20
2018-05-14T07:27:00.458Z,75.10
2018-05-14T07:29:27.998Z,75.80
2018-05-14T07:31:55.451Z,74.30
2018-05-14T07:34:22.917Z,73.50
2018-05-14T07:36:50.361Z,72.70
2018-05-14T07:39:17.815Z,72.70
2018-05-14T07:41:46.026Z,73.50
2018-05-14T07:44:13.486Z,72.80
2018-05-14T07:46:40.943Z,72.10
2018-05-14T07:49:08.390Z,71.90
2018-05-14T07:51:35.839Z,72.70
2018-05-14T07:54:03.298Z,71.60
2018-05-14T07:56:31.506Z,71.40
2018-05-14T07:58:58.936Z,71.40
2018-05-14T08:01:26.399Z,71.40
2018-05-14T08:03:53.854Z,70.70
2018-05-14T08:06:21.302Z,71.10
2018-05-14T08:08:48.744Z,69.60
2018-05-14T08:11:16.217Z,69.50
2018-05-14T08:13:44.431Z,69.00
2018-05-14T08:16:11.867Z,69.00
2018-05-14T08:18:39.358Z,69.70
2018-05-14T08:21:06.819Z,69.70
2018-05-14T08:23:34.331Z,69.00
2018-05-14T08:26:01.749Z,68.10
2018-05-14T08:28:29.201Z,69.30
2018-05-14T08:30:56.663Z,68.60
2018-05-14T08:33:24.128Z,69.40
2018-05-14T08:35:52.353Z,70.00
2018-05-14T08:38:19.790Z,70.00
2018-05-14T08:40:47.245Z,70.40
2018-05-14T08:43:14.715Z,70.70
2018-05-14T08:45:42.161Z,71.40
2018-05-14T08:48:09.612Z,71.10
2018-05-14T08:50:37.058Z,71.70
2018-05-14T08:53:04.495Z,71.40
2018-05-14T08:55:31.946Z,71.40
2018-05-14T08:57:59.381Z,72.10
2018-05-14T09:00:26.822Z,72.90
2018-05-14T09:02:54.316Z,72.20
2018-05-14T09:05:21.780Z,72.70
2018-05-14T09:07:49.209Z,72.80
2018-05-14T09:10:16.654Z,73.10
2018-05-14T09:12:44.098Z,72.80
2018-05-14T09:15:11.541Z,73.40
2018-05-14T09:17:38.991Z,73.10
2018-05-14T09:20:06.493Z,73.80
2018-05-14T09:22:33.938Z,72.80
2018-05-14T09:25:01.386Z,73.40
2018-05-14T09:27:28.824Z,73.20
2018-05-14T09:29:56.658Z,73.30
2018-05-14T09:32:24.107Z,73.40
2018-05-14T09:34:51.551Z,72.10
2018-05-14T09:37:18.996Z,72.00
2018-05-14T09:39:46.451Z,71.20
2018-05-14T09:42:13.895Z,71.60
2018-05-14T09:44:41.339Z,70.70
2018-05-14T09:47:08.836Z,70.60
2018-05-14T09:49:36.327Z,69.90
2018-05-14T09:52:03.774Z,70.90
2018-05-14T09:54:31.286Z,69.20
2018-05-14T09:56:58.736Z,69.40
2018-05-14T09:59:26.205Z,69.20
2018-05-14T10:01:53.638Z,69.10
2018-05-14T10:04:21.098Z,69.50
2018-05-14T10:06:48.587Z,68.80
2018-05-14T10:09:16.809Z,67.30
2018-05-14T10:11:44.266Z,67.30
2018-05-14T10:14:11.718Z,68.10
2018-05-14T10:16:39.926Z,68.70
2018-05-14T10:19:07.381Z,68.80
2018-05-14T10:21:34.842Z,69.50
2018-05-14T10:24:02.294Z,67.60
2018-05-14T10:26:29.754Z,66.90
2018-05-14T10:28:57.950Z,66.30
2018-05-14T10:31:25.398Z,66.30
2018-05-14T10:33:52.847Z,66.50
2018-05-14T10:36:20.304Z,67.20
2018-05-14T10:38:47.746Z,67.20
2018-05-14T10:41:15.209Z,66.30
2018-05-14T10:43:42.667Z,65.70
2018-05-14T10:46:10.870Z,66.10
2018-05-14T10:48:38.302Z,66.00
2018-05-14T10:51:05.767Z,66.80
2018-05-14T10:53:33.217Z,68.10
2018-05-14T10:56:00.656Z,67.40
2018-05-14T10:58:28.102Z,66.40
2018-05-14T11:00:56.310Z,66.30
2018-05-14T11:03:24.534Z,65.00
2018-05-14T11:05:51.982Z,65.00
2018-05-14T11:08:19.446Z,65.10
2018-05-14T11:10:47.670Z,65.30
2018-05-14T11:13:15.118Z,65.30
2018-05-14T11:15:42.595Z,64.40
2018-05-14T11:18:10.058Z,64.00
2018-05-14T11:20:37.522Z,63.60
2018-05-14T11:23:04.949Z,62.30
2018-05-14T11:25:32.406Z,62.80
2018-05-14T11:27:59.869Z,61.90
2018-05-14T11:30:27.335Z,60.10
2018-05-14T11:32:54.827Z,60.20
2018-05-14T11:35:22.336Z,58.80
2018-05-14T11:37:49.712Z,57.90
2018-05-14T11:40:17.150Z,59.00
2018-05-14T11:42:44.791Z,58.30
2018-05-14T11:45:13.002Z,58.10
2018-05-14T11:47:40.437Z,58.10
2018-05-14T11:50:07.886Z,57.70
2018-05-14T11:52:35.408Z,57.80
2018-05-14T11:55:02.869Z,58.70
2018-05-14T11:57:30.324Z,57.90
2018-05-14T11:59:57.771Z,56.40
2018-05-14T12:02:25.364Z,56.80
2018-05-14T12:04:52.798Z,55.80
2018-05-14T12:07:20.368Z,57.30
2018-05-14T12:09:47.806Z,56.50
2018-05-14T12:12:15.278Z,56.30
2018-05-14T12:14:42.691Z,57.00
2018-05-14T12:17:10.131Z,57.20
2018-05-14T12:19:37.576Z,57.10
2018-05-14T12:22:05.033Z,56.60
2018-05-14T12:24:32.568Z,55.60
2018-05-14T12:27:00.030Z,55.80
2018-05-14T12:29:28.238Z,55.30
2018-05-14T12:31:56.464Z,56.10
2018-05-14T12:34:23.894Z,55.40
2018-05-14T12:36:51.343Z,54.60
2018-05-14T12:39:18.802Z,53.30
2018-05-14T12:41:46.249Z,55.90
2018-05-14T12:44:13.687Z,56.00
2018-05-14T12:46:41.142Z,55.50
2018-05-14T12:49:08.577Z,54.60
2018-05-14T12:51:36.034Z,53.80
2018-05-14T12:54:04.242Z,55.10
2018-05-14T12:56:31.698Z,54.40
2018-05-14T12:58:59.133Z,52.20
2018-05-14T13:01:26.610Z,52.80
2018-05-14T13:03:54.058Z,53.60
2018-05-14T13:06:21.495Z,53.00
2018-05-14T13:08:48.938Z,52.00
2018-05-14T13:11:16.444Z,51.50
2018-05-14T13:13:43.903Z,53.00
2018-05-14T13:16:11.337Z,53.70
2018-05-14T13:18:38.786Z,54.70
2018-05-14T13:21:06.278Z,54.10
2018-05-14T13:23:33.731Z,51.60
2018-05-14T13:26:01.187Z,52.10
2018-05-14T13:28:28.623Z,51.10
2018-05-14T13:30:56.095Z,50.60
2018-05-14T13:33:23.533Z,51.80
2018-05-14T13:35:50.983Z,51.80
2018-05-14T13:38:18.437Z,51.80
2018-05-14T13:40:45.878Z,52.80
2018-05-14T13:43:13.994Z,54.70
2018-05-14T13:45:41.439Z,54.60
2018-05-14T13:48:09.067Z,55.70
2018-05-14T13:50:37.275Z,56.30
2018-05-14T13:53:04.762Z,56.30
2018-05-14T13:55:32.200Z,55.80
2018-05-14T13:58:00.425Z,55.30
2018-05-14T14:00:27.878Z,54.50
2018-05-14T14:02:56.081Z,54.10
2018-05-14T14:05:24.314Z,54.60
2018-05-14T14:07:51.756Z,54.60
2018-05-14T14:10:19.216Z,54.70
2018-05-14T14:12:47.437Z,56.40
2018-05-14T14:15:14.874Z,56.40
2018-05-14T14:17:42.332Z,56.40
2018-05-14T14:20:09.769Z,56.60
2018-05-14T14:22:37.351Z,57.20
2018-05-14T14:25:05.549Z,57.50
2018-05-14T14:27:32.990Z,57.50
2018-05-14T14:30:00.436Z,57.30
2018-05-14T14:32:27.902Z,56.80
2018-05-14T14:34:55.349Z,58.10
2018-05-14T14:37:22.820Z,56.90
2018-05-14T14:39:50.266Z,55.90
2018-05-14T14:42:18.481Z,54.50
2018-05-14T14:44:45.923Z,54.40
2018-05-14T14:47:13.386Z,54.40
2018-05-14T14:49:40.825Z,54.70
2018-05-14T14:52:08.286Z,54.40
2018-05-14T14:54:35.743Z,53.10
2018-05-14T14:57:04.129Z,54.20
2018-05-14T14:59:31.578Z,54.20
2018-05-14T15:01:59.054Z,51.90
2018-05-14T15:04:26.573Z,51.40
2018-05-14T15:06:54.050Z,50.10
2018-05-14T15:09:21.545Z,49.90
2018-05-14T15:11:49.005Z,50.30
2018-05-14T15:14:16.456Z,50.30
2018-05-14T15:16:43.902Z,52.40
2018-05-14T15:19:11.355Z,48.40
2018-05-14T15:21:38.798Z,58.20
2018-05-14T15:24:06.389Z,61.10
2018-05-14T15:26:33.842Z,66.60
2018-05-14T15:29:01.351Z,72.10
2018-05-14T15:31:28.807Z,79.30
2018-05-14T15:33:56.265Z,76.80
2018-05-14T15:36:24.489Z,83.00
2018-05-14T15:38:51.934Z,83.00
2018-05-14T15:41:19.404Z,80.70
2018-05-14T15:43:46.857Z,84.70
2018-05-14T15:46:15.226Z,82.60
2018-05-14T15:48:42.723Z,82.50
2018-05-14T15:51:10.200Z,85.80
2018-05-14T15:53:38.428Z,84.00
2018-05-14T15:56:05.955Z,83.80
2018-05-14T15:58:33.416Z,84.90
2018-05-14T16:01:00.886Z,85.90
2018-05-14T16:03:28.488Z,87.30
2018-05-14T16:05:56.584Z,87.30
2018-05-14T16:08:24.063Z,88.70
2018-05-14T16:10:51.500Z,88.50
2018-05-14T16:13:18.955Z,89.30
2018-05-14T16:15:46.412Z,89.70
2018-05-14T16:18:13.876Z,88.40
2018-05-14T16:20:41.393Z,86.70
2018-05-14T16:23:08.858Z,85.70
2018-05-14T16:25:36.351Z,84.60
2018-05-14T16:28:03.818Z,83.90
2018-05-14T16:30:31.276Z,82.80
2018-05-14T16:32:58.725Z,81.50
2018-05-14T16:35:26.227Z,81.40
2018-05-14T16:37:53.953Z,81.90
2018-05-14T16:40:21.402Z,79.30
2018-05-14T16:42:48.855Z,77.90
2018-05-14T16:45:17.072Z,73.80
2018-05-14T16:47:44.534Z,73.80
2018-05-14T16:50:12.783Z,70.60
2018-05-14T16:52:40.226Z,70.60
2018-05-14T16:55:07.710Z,70.40
2018-05-14T16:57:36.033Z,65.90
2018-05-14T17:00:03.458Z,65.70
2018-05-14T17:02:30.946Z,66.10
2018-05-14T17:04:59.155Z,63.90
2018-05-14T17:07:26.606Z,63.50
2018-05-14T17:09:54.069Z,64.40
2018-05-14T17:12:21.523Z,64.20
2018-05-14T17:14:48.976Z,62.90
2018-05-14T17:17:16.430Z,62.40
2018-05-14T17:19:44.718Z,61.70
2018-05-14T17:22:12.168Z,61.70
2018-05-14T17:24:39.628Z,62.00
2018-05-14T17:27:07.068Z,58.20
2018-05-14T17:29:34.511Z,58.10
2018-05-14T17:32:01.989Z,58.90
2018-05-14T17:34:29.406Z,58.10
2018-05-14T17:36:56.939Z,56.40
2018-05-14T17:39:24.402Z,56.10
2018-05-14T17:41:51.831Z,55.60
2018-05-14T17:44:19.330Z,55.60
2018-05-14T17:46:46.764Z,54.90
2018-05-14T17:49:14.999Z,56.10
2018-05-14T17:51:42.450Z,56.10
2018-05-14T17:54:09.897Z,56.00
2018-05-14T17:56:37.330Z,53.40
2018-05-14T17:59:04.803Z,54.60
2018-05-14T18:01:32.251Z,55.00
2018-05-14T18:03:59.705Z,54.60
2018-05-14T18:06:27.149Z,55.00
2018-05-14T18:08:54.634Z,55.50
2018-05-14T18:11:22.084Z,54.60
2018-05-14T18:13:49.539Z,55.50
2018-05-14T18:16:16.975Z,54.90
2018-05-14T18:18:44.445Z,55.00
2018-05-14T18:21:12.655Z,55.30
2018-05-14T18:23:46.817Z,55.30
2018-05-14T18:26:17.046Z,54.60
2018-05-14T18:28:54.683Z,55.20
2018-05-14T18:31:27.020Z,56.30
2018-05-14T18:33:54.620Z,55.30
2018-05-14T18:36:22.083Z,56.10
2018-05-14T18:38:49.656Z,56.10
2018-05-14T18:41:17.166Z,56.10
2018-05-14T18:43:44.713Z,56.90
2018-05-14T18:46:12.162Z,57.60
2018-05-14T18:48:39.608Z,56.70
2018-05-14T18:51:07.379Z,57.10
2018-05-14T18:53:34.839Z,57.30
2018-05-14T18:56:03.049Z,57.20
2018-05-14T18:58:30.665Z,57.20
2018-05-14T19:00:58.183Z,57.90
2018-05-14T19:03:25.906Z,58.20
2018-05-14T19:05:53.484Z,59.20
2018-05-14T19:08:21.049Z,59.90
2018-05-14T19:10:54.210Z,58.10
2018-05-14T19:13:22.696Z,59.50
2018-05-14T19:18:56.677Z,59.50
2018-05-14T19:21:24.962Z,60.00
2018-05-14T19:23:53.242Z,60.00
2018-05-14T19:26:20.686Z,59.10
2018-05-14T19:28:53.873Z,59.60
2018-05-14T19:31:21.323Z,59.00
2018-05-14T19:33:54.525Z,59.60
2018-05-14T19:36:21.979Z,60.30
2018-05-14T19:38:49.437Z,61.90
2018-05-14T19:41:17.640Z,61.50
2018-05-14T19:43:45.099Z,61.50
2018-05-14T19:46:12.550Z,61.40
2018-05-14T19:48:40.036Z,61.20
2018-05-14T19:51:07.488Z,61.40
2018-05-14T19:53:34.948Z,62.10
2018-05-14T19:56:02.426Z,62.20
2018-05-14T19:58:29.874Z,62.70
2018-05-14T20:00:57.422Z,62.50
2018-05-14T20:03:24.887Z,62.10
2018-05-14T20:05:52.337Z,61.90
2018-05-14T20:08:19.787Z,62.30
2018-05-14T20:10:47.253Z,62.40
2018-05-14T20:13:14.685Z,62.20
2018-05-14T20:15:42.141Z,62.50
2018-05-14T20:18:09.622Z,62.80
2018-05-14T20:20:37.054Z,62.90
2018-05-14T20:23:04.585Z,62.30
2018-05-14T20:25:32.031Z,62.70
2018-05-14T20:27:59.544Z,62.70
2018-05-14T20:30:27.719Z,62.90
2018-05-14T20:32:55.171Z,62.00
2018-05-14T20:35:22.614Z,61.60
2018-05-14T20:37:50.064Z,61.50
2018-05-14T20:40:17.515Z,61.90
2018-05-14T20:42:44.971Z,62.10
2018-05-14T20:45:12.443Z,61.90
2018-05-14T20:47:40.638Z,63.10
2018-05-14T20:50:09.693Z,63.00
2018-05-14T20:52:37.275Z,65.30
2018-05-14T20:55:05.526Z,68.20
2018-05-14T20:57:33.046Z,68.20
2018-05-14T21:00:00.480Z,69.00
2018-05-14T21:02:27.935Z,69.90
2018-05-14T21:04:55.459Z,70.30
2018-05-14T21:07:23.654Z,72.50
2018-05-14T21:09:51.111Z,72.50
2018-05-14T21:12:18.566Z,73.30
2018-05-14T21:14:46.116Z,74.50
2018-05-14T21:17:13.646Z,75.70
2018-05-14T21:19:41.133Z,76.20
2018-05-14T21:22:09.354Z,77.70
2018-05-14T21:24:36.802Z,77.70
2018-05-14T21:27:04.257Z,77.30
2018-05-14T21:29:31.702Z,77.60
2018-05-14T21:31:59.159Z,78.00
2018-05-14T21:34:26.628Z,77.80
2018-05-14T21:36:54.071Z,78.00
2018-05-14T21:39:21.526Z,78.40
2018-05-14T21:41:48.983Z,78.50
2018-05-14T21:44:16.426Z,78.70
2018-05-14T21:46:43.898Z,78.40
2018-05-14T21:49:11.347Z,78.10
2018-05-14T21:51:39.604Z,78.80
2018-05-14T21:54:07.269Z,78.80
2018-05-14T21:56:35.553Z,79.80
2018-05-14T21:59:02.998Z,79.70
2018-05-14T22:01:31.267Z,80.10
2018-05-14T22:03:58.734Z,80.50
2018-05-14T22:06:26.204Z,80.80
2018-05-14T22:08:54.263Z,80.80
2018-05-14T22:11:21.726Z,80.80
2018-05-14T22:13:49.935Z,80.80
2018-05-14T22:16:17.406Z,80.70
2018-05-14T22:18:44.868Z,81.00
2018-05-14T22:21:13.444Z,81.40
2018-05-14T22:23:41.814Z,81.70
2018-05-14T22:26:09.281Z,81.80
2018-05-14T22:28:36.730Z,82.00
2018-05-14T22:31:04.180Z,81.90
2018-05-14T22:33:31.884Z,81.80
2018-05-14T22:36:00.111Z,83.00
2018-05-14T22:38:28.358Z,83.70
2018-05-14T22:40:55.845Z,83.70
2018-05-14T22:43:24.073Z,86.00
2018-05-14T22:45:51.526Z,86.00
2018-05-14T22:48:18.978Z,86.20
2018-05-14T22:50:46.435Z,86.70
2018-05-14T22:53:14.640Z,87.10
2018-05-14T22:55:42.126Z,87.20
2018-05-14T22:58:09.574Z,87.70
2018-05-14T23:00:37.015Z,88.40
2018-05-14T23:03:05.225Z,88.00
2018-05-14T23:05:32.671Z,87.90
2018-05-14T23:08:00.377Z,88.00
2018-05-14T23:10:27.878Z,87.30
2018-05-14T23:12:55.338Z,86.90
2018-05-14T23:15:22.788Z,86.70
2018-05-14T23:17:50.245Z,86.70
2018-05-14T23:20:18.459Z,86.60
2018-05-14T23:22:45.893Z,86.60
2018-05-14T23:25:13.338Z,86.40
2018-05-14T23:27:40.789Z,86.10
2018-05-14T23:30:08.240Z,86.60
2018-05-14T23:32:35.696Z,86.60
2018-05-14T23:35:03.151Z,86.20
2018-05-14T23:37:30.627Z,86.10
2018-05-14T23:39:58.070Z,86.70
2018-05-14T23:42:25.527Z,86.30
2018-05-14T23:44:52.992Z,85.80
2018-05-14T23:47:20.438Z,86.10
2018-05-14T23:49:47.888Z,85.80
2018-05-14T23:52:15.338Z,86.10
2018-05-14T23:54:42.785Z,86.00
2018-05-14T23:57:10.230Z,86.30
2018-05-14T23:59:37.686Z,85.70
